createdAt,value
2024-05-09T00:02:14.986Z,6.14
2024-05-09T00:05:16.552Z,6.06
2024-05-09T00:08:18.312Z,5.99
2024-05-09T00:11:22.336Z,5.92
2024-05-09T00:14:23.959Z,5.86
2024-05-09T00:17:25.911Z,5.78
2024-05-09T00:20:35.991Z,5.70
2024-05-09T00:23:44.191Z,5.67
2024-05-09T00:26:45.716Z,5.62
2024-05-09T00:29:47.057Z,5.57
2024-05-09T00:32:48.681Z,5.56
2024-05-09T00:35:59.072Z,5.52
2024-05-09T00:39:02.950Z,5.49
2024-05-09T00:42:11.919Z,5.47
2024-05-09T00:45:13.564Z,5.45
2024-05-09T00:48:19.640Z,5.42
2024-05-09T00:51:22.929Z,5.40
2024-05-09T00:54:25.173Z,5.32
2024-05-09T00:57:26.815Z,5.24
2024-05-09T01:00:35.724Z,5.19
2024-05-09T01:03:44.837Z,5.09
2024-05-09T01:06:47.817Z,5.06
2024-05-09T01:09:49.273Z,5.02
2024-05-09T01:12:50.927Z,4.96
2024-05-09T01:15:53.012Z,4.93
2024-05-09T01:18:55.541Z,4.89
2024-05-09T01:21:59.561Z,4.86
2024-05-09T01:25:01.037Z,4.87
2024-05-09T01:28:02.619Z,4.86
2024-05-09T01:31:04.411Z,4.89
2024-05-09T01:34:09.136Z,4.89
2024-05-09T01:37:10.800Z,4.88
2024-05-09T01:40:18.641Z,4.85
2024-05-09T01:43:26.526Z,4.80
2024-05-09T01:46:28.184Z,4.73
2024-05-09T01:49:35.229Z,4.65
2024-05-09T01:52:36.942Z,4.53
2024-05-09T01:55:38.740Z,4.44
2024-05-09T01:58:40.266Z,4.37
2024-05-09T02:01:56.111Z,4.30
2024-05-09T02:04:59.198Z,4.26
2024-05-09T02:08:14.975Z,4.21
2024-05-09T02:11:28.226Z,4.11
2024-05-09T02:14:29.720Z,4.01
2024-05-09T02:17:36.611Z,3.96
2024-05-09T02:20:47.714Z,3.93
2024-05-09T02:23:49.199Z,3.90
2024-05-09T02:26:55.870Z,3.89
2024-05-09T02:30:12.099Z,3.81
2024-05-09T02:33:16.914Z,3.79
2024-05-09T02:36:38.943Z,3.79
2024-05-09T02:39:40.527Z,3.77
2024-05-09T02:42:45.169Z,3.75
2024-05-09T02:45:49.651Z,3.73
2024-05-09T02:49:03.518Z,3.71
2024-05-09T02:52:07.653Z,3.68
2024-05-09T02:55:26.475Z,3.63
2024-05-09T02:58:48.259Z,3.57
2024-05-09T03:01:49.825Z,3.52
2024-05-09T03:05:04.657Z,3.42
2024-05-09T03:08:08.878Z,3.32
2024-05-09T03:11:43.398Z,3.22
2024-05-09T03:14:50.060Z,3.11
2024-05-09T03:17:53.961Z,3.06
2024-05-09T03:21:11.540Z,3.03
2024-05-09T03:24:28.442Z,3.04
2024-05-09T03:27:42.258Z,3.06
2024-05-09T03:30:56.101Z,3.03
2024-05-09T03:34:03.229Z,3.02
2024-05-09T03:37:14.413Z,3.05
2024-05-09T03:40:21.046Z,3.09
2024-05-09T03:43:30.887Z,3.18
2024-05-09T03:46:37.675Z,3.34
2024-05-09T03:49:39.393Z,3.53
2024-05-09T03:52:41.046Z,3.69
2024-05-09T03:55:45.304Z,3.80
2024-05-09T03:58:47.079Z,3.88
2024-05-09T04:01:48.839Z,3.91
2024-05-09T04:04:50.899Z,3.96
2024-05-09T04:08:04.836Z,3.99
2024-05-09T04:11:06.651Z,4.07
2024-05-09T04:14:08.468Z,4.18
2024-05-09T04:17:10.023Z,4.41
2024-05-09T04:20:21.076Z,4.66
2024-05-09T04:23:30.740Z,4.95
2024-05-09T04:26:40.006Z,5.30
2024-05-09T04:29:41.441Z,5.68
2024-05-09T04:32:43.085Z,6.04
2024-05-09T04:35:45.382Z,6.43
2024-05-09T04:38:47.128Z,6.86
2024-05-09T04:41:48.493Z,7.26
2024-05-09T04:44:49.963Z,7.62
2024-05-09T04:47:51.877Z,7.98
2024-05-09T04:50:53.883Z,8.29
2024-05-09T04:53:55.348Z,8.58
2024-05-09T04:56:56.920Z,8.87
2024-05-09T04:59:58.302Z,9.22
2024-05-09T05:02:59.919Z,9.55
2024-05-09T05:06:01.754Z,9.89
2024-05-09T05:09:03.374Z,10.33
2024-05-09T05:12:05.181Z,10.91
2024-05-09T05:15:07.186Z,11.48
2024-05-09T05:18:08.867Z,11.94
2024-05-09T05:21:13.307Z,12.23
2024-05-09T05:24:14.703Z,12.67
2024-05-09T05:27:16.316Z,13.01
2024-05-09T05:30:24.753Z,13.37
2024-05-09T05:33:30.384Z,13.82
2024-05-09T05:36:31.912Z,14.06
2024-05-09T05:39:33.260Z,14.19
2024-05-09T05:42:34.596Z,14.29
2024-05-09T05:45:36.284Z,14.45
2024-05-09T05:48:37.838Z,14.79
2024-05-09T05:51:39.277Z,15.15
2024-05-09T05:54:40.646Z,15.31
2024-05-09T05:57:42.046Z,15.46
2024-05-09T06:00:43.534Z,15.71
2024-05-09T06:03:45.066Z,15.86
2024-05-09T06:06:46.523Z,15.72
2024-05-09T06:09:49.952Z,15.88
2024-05-09T06:12:51.788Z,16.22
2024-05-09T06:15:53.138Z,16.25
2024-05-09T06:18:54.693Z,16.49
2024-05-09T06:21:56.264Z,16.50
2024-05-09T06:24:57.686Z,16.74
2024-05-09T06:28:00.620Z,17.03
2024-05-09T06:31:02.932Z,17.15
2024-05-09T06:34:04.407Z,17.21
2024-05-09T06:37:05.942Z,17.48
2024-05-09T06:40:09.874Z,17.66
2024-05-09T06:43:12.727Z,17.78
2024-05-09T06:46:14.118Z,18.03
2024-05-09T06:49:15.768Z,18.27
2024-05-09T06:52:17.536Z,18.42
2024-05-09T06:55:18.898Z,18.67
2024-05-09T06:58:20.367Z,18.94
2024-05-09T07:01:21.727Z,19.15
2024-05-09T07:04:23.288Z,19.31
2024-05-09T07:07:24.794Z,19.56
2024-05-09T07:10:32.793Z,19.46
2024-05-09T07:13:36.637Z,19.22
2024-05-09T07:16:37.990Z,19.37
2024-05-09T07:19:39.414Z,19.33
2024-05-09T07:22:40.955Z,19.50
2024-05-09T07:25:42.461Z,19.83
2024-05-09T07:28:43.798Z,20.09
2024-05-09T07:31:45.385Z,19.59
2024-05-09T07:34:46.782Z,19.23
2024-05-09T07:37:48.271Z,19.62
2024-05-09T07:40:49.800Z,20.14
2024-05-09T07:43:51.206Z,20.37
2024-05-09T07:48:13.637Z,20.51
2024-05-09T07:53:38.191Z,20.98
2024-05-09T07:56:39.931Z,21.53
2024-05-09T07:59:41.554Z,22.01
2024-05-09T08:02:42.900Z,22.44
2024-05-09T08:05:44.381Z,22.80
2024-05-09T08:08:46.501Z,22.87
2024-05-09T08:11:50.457Z,23.22
2024-05-09T08:14:51.854Z,23.53
2024-05-09T08:17:53.270Z,23.55
2024-05-09T08:20:54.675Z,23.56
2024-05-09T08:23:56.074Z,23.71
2024-05-09T08:26:57.454Z,23.53
2024-05-09T08:29:58.833Z,23.63
2024-05-09T08:33:00.352Z,23.69
2024-05-09T08:36:01.833Z,24.18
2024-05-09T08:39:03.302Z,24.57
2024-05-09T08:42:05.965Z,24.86
2024-05-09T08:45:08.098Z,24.88
2024-05-09T08:48:10.002Z,23.96
2024-05-09T08:51:13.402Z,24.03
2024-05-09T08:54:14.781Z,24.60
2024-05-09T08:57:16.741Z,25.10
2024-05-09T09:00:29.058Z,25.50
2024-05-09T09:03:36.574Z,25.44
2024-05-09T09:06:38.672Z,25.16
2024-05-09T09:09:42.321Z,25.40
2024-05-09T09:12:44.327Z,25.82
2024-05-09T09:15:47.364Z,25.95
2024-05-09T09:18:48.881Z,26.18
2024-05-09T09:21:50.602Z,26.37
2024-05-09T09:24:52.020Z,26.62
2024-05-09T09:27:53.502Z,26.67
2024-05-09T09:31:01.197Z,26.54
2024-05-09T09:34:07.415Z,26.76
2024-05-09T09:37:10.802Z,27.12
2024-05-09T09:43:21.073Z,26.68
2024-05-09T09:46:23.241Z,26.65
2024-05-09T09:49:29.981Z,26.84
2024-05-09T09:52:31.618Z,27.13
2024-05-09T09:55:33.509Z,26.93
2024-05-09T09:58:35.598Z,26.61
2024-05-09T10:01:37.155Z,26.62
2024-05-09T10:04:38.797Z,26.41
2024-05-09T10:07:41.646Z,26.48
2024-05-09T10:10:46.843Z,26.85
2024-05-09T10:13:51.234Z,27.22
2024-05-09T10:16:52.664Z,27.67
2024-05-09T10:20:11.696Z,27.82
2024-05-09T10:23:29.998Z,28.33
2024-05-09T10:26:31.379Z,28.20
2024-05-09T10:29:32.741Z,28.28
2024-05-09T10:32:38.898Z,28.22
2024-05-09T10:35:50.986Z,26.89
2024-05-09T10:38:53.791Z,26.69
2024-05-09T10:41:55.129Z,27.35
2024-05-09T10:44:57.167Z,27.64
2024-05-09T10:47:58.831Z,28.16
2024-05-09T10:51:00.771Z,28.31
2024-05-09T10:54:02.269Z,28.35
2024-05-09T10:57:04.134Z,28.67
2024-05-09T11:00:10.160Z,28.81
2024-05-09T11:03:14.371Z,28.93
2024-05-09T11:06:16.746Z,28.88
2024-05-09T11:09:18.228Z,29.22
2024-05-09T11:12:22.038Z,29.59
2024-05-09T11:15:24.937Z,29.52
2024-05-09T11:18:30.389Z,29.28
2024-05-09T11:21:34.936Z,29.07
2024-05-09T11:24:36.395Z,28.91
2024-05-09T11:27:37.901Z,29.01
2024-05-09T11:30:39.345Z,28.74
2024-05-09T11:33:44.187Z,28.79
2024-05-09T11:36:45.879Z,28.90
2024-05-09T11:39:47.332Z,29.01
2024-05-09T11:42:51.557Z,29.31
2024-05-09T11:45:56.893Z,29.72
2024-05-09T11:48:58.380Z,29.55
2024-05-09T11:51:59.846Z,29.02
2024-05-09T11:55:01.406Z,29.06
2024-05-09T11:58:03.372Z,29.59
2024-05-09T12:01:05.025Z,29.71
2024-05-09T12:04:06.778Z,30.02
2024-05-09T12:07:12.201Z,29.85
2024-05-09T12:10:19.595Z,29.17
2024-05-09T12:13:26.704Z,28.80
2024-05-09T12:16:28.560Z,28.67
2024-05-09T12:19:31.757Z,28.94
2024-05-09T12:22:33.168Z,29.13
2024-05-09T12:25:35.421Z,28.83
2024-05-09T12:28:36.878Z,29.34
2024-05-09T12:31:38.340Z,29.56
2024-05-09T12:34:39.864Z,29.53
2024-05-09T12:37:41.327Z,29.42
2024-05-09T12:40:42.934Z,29.17
2024-05-09T12:43:44.585Z,29.08
2024-05-09T12:46:45.978Z,28.48
2024-05-09T12:49:47.671Z,27.86
2024-05-09T12:52:49.110Z,27.62
2024-05-09T12:55:56.843Z,27.57
2024-05-09T12:59:01.745Z,27.62
2024-05-09T13:02:03.440Z,28.06
2024-05-09T13:05:05.448Z,28.79
2024-05-09T13:08:07.257Z,29.45
2024-05-09T13:11:08.863Z,29.80
2024-05-09T13:14:10.482Z,30.18
2024-05-09T13:17:11.914Z,30.44
2024-05-09T13:20:22.348Z,30.36
2024-05-09T13:23:27.650Z,29.08
2024-05-09T13:26:29.069Z,28.81
2024-05-09T13:29:30.457Z,28.78
2024-05-09T13:32:31.891Z,29.40
2024-05-09T13:35:33.433Z,29.81
2024-05-09T13:38:34.782Z,30.20
2024-05-09T13:41:36.156Z,30.60
2024-05-09T13:44:37.498Z,30.10
2024-05-09T13:47:39.244Z,29.38
2024-05-09T13:50:40.994Z,28.64
2024-05-09T13:53:42.364Z,28.56
2024-05-09T13:56:43.745Z,28.39
2024-05-09T13:59:45.182Z,28.56
2024-05-09T14:02:46.650Z,28.53
2024-05-09T14:05:48.854Z,29.62
2024-05-09T14:08:50.727Z,30.75
2024-05-09T14:11:52.166Z,31.70
2024-05-09T14:14:53.645Z,32.20
2024-05-09T14:17:55.090Z,32.50
2024-05-09T14:20:56.559Z,32.94
2024-05-09T14:23:57.932Z,33.10
2024-05-09T14:26:59.408Z,33.15
2024-05-09T14:30:00.829Z,32.61
2024-05-09T14:33:02.389Z,31.91
2024-05-09T14:36:03.988Z,31.65
2024-05-09T14:39:05.479Z,31.62
2024-05-09T14:42:06.955Z,31.19
2024-05-09T14:45:08.381Z,31.10
2024-05-09T14:48:10.478Z,31.14
2024-05-09T14:51:12.052Z,30.65
2024-05-09T14:54:13.637Z,30.35
2024-05-09T14:57:15.043Z,30.10
2024-05-09T15:00:24.801Z,29.56
2024-05-09T15:03:30.105Z,28.85
2024-05-09T15:06:31.965Z,27.56
2024-05-09T15:09:36.566Z,26.32
2024-05-09T15:12:38.136Z,24.97
2024-05-09T15:15:39.842Z,24.00
2024-05-09T15:18:43.787Z,23.68
2024-05-09T15:21:45.509Z,23.33
2024-05-09T15:24:47.133Z,23.31
2024-05-09T15:27:48.611Z,23.63
2024-05-09T15:30:50.135Z,23.69
2024-05-09T15:33:51.761Z,23.84
2024-05-09T15:36:53.250Z,23.62
2024-05-09T15:39:54.756Z,23.25
2024-05-09T15:42:56.174Z,22.82
2024-05-09T15:45:57.662Z,22.50
2024-05-09T15:48:59.378Z,22.27
2024-05-09T15:52:00.991Z,22.08
2024-05-09T15:55:02.435Z,21.96
2024-05-09T15:58:05.051Z,21.92
2024-05-09T16:01:07.004Z,21.96
2024-05-09T16:04:08.673Z,21.84
2024-05-09T16:07:10.330Z,21.69
2024-05-09T16:10:19.705Z,21.67
2024-05-09T16:13:24.264Z,21.66
2024-05-09T16:16:25.829Z,21.65
2024-05-09T16:19:27.366Z,21.56
2024-05-09T16:22:28.738Z,21.44
2024-05-09T16:25:30.141Z,21.27
2024-05-09T16:28:31.789Z,21.31
2024-05-09T16:31:33.329Z,21.22
2024-05-09T16:34:34.886Z,20.95
2024-05-09T16:37:36.384Z,20.70
2024-05-09T16:40:40.457Z,20.47
2024-05-09T16:43:42.907Z,20.28
2024-05-09T16:46:44.323Z,20.00
2024-05-09T16:49:45.912Z,19.61
2024-05-09T16:52:47.352Z,19.19
2024-05-09T16:55:48.745Z,18.89
2024-05-09T16:58:50.235Z,18.71
2024-05-09T17:01:51.686Z,19.07
2024-05-09T17:04:53.512Z,20.16
2024-05-09T17:07:55.950Z,21.41
2024-05-09T17:10:57.516Z,22.29
2024-05-09T17:13:59.352Z,22.91
2024-05-09T17:17:00.874Z,22.80
2024-05-09T17:20:03.683Z,21.54
2024-05-09T17:23:06.328Z,20.47
2024-05-09T17:26:08.160Z,19.72
2024-05-09T17:29:12.158Z,19.14
2024-05-09T17:32:13.955Z,18.61
2024-05-09T17:35:15.394Z,18.13
2024-05-09T17:38:17.156Z,17.72
2024-05-09T17:41:18.525Z,17.34
2024-05-09T17:44:19.897Z,17.07
2024-05-09T17:47:21.340Z,16.81
2024-05-09T17:50:30.256Z,16.55
2024-05-09T17:53:35.901Z,16.28
2024-05-09T17:56:37.288Z,16.06
2024-05-09T17:59:38.646Z,15.87
2024-05-09T18:02:40.023Z,15.67
2024-05-09T18:05:42.871Z,15.45
2024-05-09T18:08:45.533Z,15.25
2024-05-09T18:11:47.067Z,15.06
2024-05-09T18:14:48.930Z,14.83
2024-05-09T18:17:51.362Z,14.61
2024-05-09T18:20:52.822Z,14.38
2024-05-09T18:23:56.745Z,14.17
2024-05-09T18:26:59.439Z,13.96
2024-05-09T18:30:00.915Z,13.74
2024-05-09T18:33:02.511Z,13.50
2024-05-09T18:36:04.419Z,13.29
2024-05-09T18:39:06.183Z,13.12
2024-05-09T18:42:07.625Z,12.96
2024-05-09T18:45:09.365Z,12.79
2024-05-09T18:48:11.223Z,12.63
2024-05-09T18:51:12.846Z,12.47
2024-05-09T18:54:14.347Z,12.28
2024-05-09T18:57:15.929Z,12.10
2024-05-09T19:00:30.861Z,11.88
2024-05-09T19:03:36.990Z,11.63
2024-05-09T19:06:38.649Z,11.46
2024-05-09T19:09:40.193Z,11.31
2024-05-09T19:12:41.897Z,11.17
2024-05-09T19:15:44.355Z,11.05
2024-05-09T19:18:46.414Z,10.96
2024-05-09T19:21:48.000Z,10.85
2024-05-09T19:24:49.477Z,10.73
2024-05-09T19:27:50.987Z,10.63
2024-05-09T19:30:52.635Z,10.53
2024-05-09T19:33:54.348Z,10.46
2024-05-09T19:36:55.955Z,10.38
2024-05-09T19:39:57.870Z,10.27
2024-05-09T19:42:59.477Z,10.13
2024-05-09T19:46:01.383Z,9.98
2024-05-09T19:49:03.631Z,9.83
2024-05-09T19:52:05.297Z,9.63
2024-05-09T19:55:07.048Z,9.51
2024-05-09T19:58:09.733Z,9.40
2024-05-09T20:01:11.456Z,9.32
2024-05-09T20:04:13.068Z,9.27
2024-05-09T20:07:14.669Z,9.27
2024-05-09T20:10:23.379Z,9.25
2024-05-09T20:13:28.145Z,9.15
2024-05-09T20:16:29.676Z,9.01
2024-05-09T20:19:31.181Z,8.86
2024-05-09T20:22:32.775Z,8.70
2024-05-09T20:25:34.256Z,8.54
2024-05-09T20:28:35.537Z,8.37
2024-05-09T20:31:37.041Z,8.26
2024-05-09T20:34:39.223Z,8.16
2024-05-09T20:37:40.712Z,8.09
2024-05-09T20:40:42.196Z,7.97
2024-05-09T20:43:43.675Z,7.79
2024-05-09T20:46:45.031Z,7.55
2024-05-09T20:49:49.585Z,7.36
2024-05-09T20:52:51.053Z,7.30
2024-05-09T20:55:52.551Z,7.25
2024-05-09T20:58:53.949Z,7.25
2024-05-09T21:01:55.730Z,7.24
2024-05-09T21:04:57.620Z,7.24
2024-05-09T21:07:59.432Z,7.17
2024-05-09T21:11:09.573Z,7.13
2024-05-09T21:14:11.235Z,6.95
2024-05-09T21:17:12.884Z,6.70
2024-05-09T21:20:20.182Z,6.51
2024-05-09T21:23:25.215Z,6.40
2024-05-09T21:26:26.786Z,6.39
2024-05-09T21:29:28.183Z,6.43
2024-05-09T21:32:29.928Z,6.46
2024-05-09T21:35:31.607Z,6.51
2024-05-09T21:38:32.991Z,6.50
2024-05-09T21:41:34.371Z,6.54
2024-05-09T21:44:38.234Z,6.54
2024-05-09T21:47:39.872Z,6.51
2024-05-09T21:50:42.399Z,6.52
2024-05-09T21:53:44.220Z,6.58
2024-05-09T21:56:45.678Z,6.55
2024-05-09T21:59:52.699Z,6.48
2024-05-09T22:02:55.118Z,6.52
2024-05-09T22:05:56.808Z,6.59
2024-05-09T22:08:58.072Z,6.63
2024-05-09T22:11:59.638Z,6.62
2024-05-09T22:15:01.269Z,6.51
2024-05-09T22:18:03.005Z,6.34
2024-05-09T22:21:14.097Z,6.19
2024-05-09T22:24:15.538Z,6.12
2024-05-09T22:27:20.136Z,6.03
2024-05-09T22:30:27.902Z,5.96
2024-05-09T22:33:47.126Z,5.85
2024-05-09T22:36:52.048Z,5.80
2024-05-09T22:39:53.518Z,5.77
2024-05-09T22:42:58.000Z,5.73
2024-05-09T22:46:10.184Z,5.53
2024-05-09T22:49:14.951Z,5.36
2024-05-09T22:52:26.914Z,5.30
2024-05-09T22:55:28.529Z,5.22
2024-05-09T22:58:30.322Z,5.20
2024-05-09T23:01:35.286Z,5.21
2024-05-09T23:04:38.126Z,5.24
2024-05-09T23:07:42.680Z,5.33
2024-05-09T23:10:44.615Z,5.38
2024-05-09T23:13:46.213Z,5.42
2024-05-09T23:16:50.410Z,5.41
2024-05-09T23:19:54.561Z,5.44
2024-05-09T23:22:56.241Z,5.45
2024-05-09T23:25:57.840Z,5.42
2024-05-09T23:28:59.332Z,5.38
2024-05-09T23:32:00.778Z,5.33
2024-05-09T23:35:11.146Z,5.30
2024-05-09T23:38:12.912Z,5.30
2024-05-09T23:41:14.456Z,5.27
2024-05-09T23:44:16.031Z,5.23
2024-05-09T23:47:17.705Z,5.21
2024-05-09T23:50:30.246Z,5.20
2024-05-09T23:53:45.436Z,5.11
2024-05-09T23:56:55.861Z,5.04
